Bezoek ook deze websites:

Template documentation
and downloads

And another site



METAR rapporten vliegvelden


Warning: curl_setopt(): CURLOPT_FOLLOWLOCATION cannot be activated when an open_basedir is set in /home/w16454we/public_html/weather28/metar/wsMetarTxt.php on line 747

Warning: curl_setopt(): CURLOPT_FOLLOWLOCATION cannot be activated when an open_basedir is set in /home/w16454we/public_html/weather28/metar/wsMetarTxt.php on line 747

Warning: curl_setopt(): CURLOPT_FOLLOWLOCATION cannot be activated when an open_basedir is set in /home/w16454we/public_html/weather28/metar/wsMetarTxt.php on line 747

Warning: curl_setopt(): CURLOPT_FOLLOWLOCATION cannot be activated when an open_basedir is set in /home/w16454we/public_html/weather28/metar/wsMetarTxt.php on line 747

Warning: curl_setopt(): CURLOPT_FOLLOWLOCATION cannot be activated when an open_basedir is set in /home/w16454we/public_html/weather28/metar/wsMetarTxt.php on line 747

Warning: curl_setopt(): CURLOPT_FOLLOWLOCATION cannot be activated when an open_basedir is set in /home/w16454we/public_html/weather28/metar/wsMetarTxt.php on line 747
   
EHVK - Volkel Rnlafb, Netherlands
Afstand tot: ZW 18 km
Gewijzigd: 22-09-2020 03:26
Nevel, Helder  
Nevel, Helder  
   Wind: Kalm
Wind: Kalm
Temperatuur: 10°C
Dauwpunt: 9°C
Vochtigheid: 94%
Barometer: 1013 hPa
Bewolking: Helder
Zicht: 6 km
Bewolking: Helder
EHVK 220126Z AUTO 00000KT 6000 BR NCD 10/09 Q1013 WHT
EDLV - Niederrhein, Germany
Afstand tot: ZO 25 km
Gewijzigd: 21-09-2020 23:50
Verouderd
Helder  
Helder  
   Wind: Kalm
Wind: Kalm
Temperatuur: 13°C
Dauwpunt: 9°C
Vochtigheid: 77%
Barometer: 1014 hPa
Zicht: meer dan 10 km
Bewolking: Helder
EDLV 212150Z 00000KT CAVOK 13/09 Q1014
EHDL - Deelen Rnlafb, Netherlands
Afstand tot: N 35 km
Gewijzigd: 22-09-2020 03:25
Helder  
Helder  
   Wind: Kalm
Wind: Kalm
Temperatuur: 7°C
Dauwpunt: 7°C
Vochtigheid: 100%
Barometer: 1013 hPa
Bewolking: Helder
Zicht: meer dan 10 km
Bewolking: Helder
EHDL 220125Z AUTO 00000KT 9999 NCD 07/07 Q1013 BLU
EHEH - Eindhoven Rnlafb, Netherlands
Afstand tot: ZW 48 km
Gewijzigd: 22-09-2020 03:33
Nevel, Helder  
Nevel, Helder  
   Wind: Kalm
Wind: Kalm
Temperatuur: 9°C
Dauwpunt: 9°C
Vochtigheid: 100%
Barometer: 1013 hPa
Bewolking: Helder
Zicht: 7 km
Bewolking: Helder
EHEH 220133Z AUTO 00000KT 7000 BR NCD 09/09 Q1013 WHT
EHGR - Gilze-Rijen Rnla, Netherlands
Afstand tot: WZW 70 km
Gewijzigd: 22-09-2020 03:37
Nevel, Helder  
Nevel, Helder  
   Wind: varieert 1.9 km/h
Wind: varieert 1.9 km/h
Temperatuur: 9°C
Dauwpunt: 8°C
Vochtigheid: 94%
Barometer: 1013 hPa
Bewolking: Helder
Zicht: 5 km
Bewolking: Helder
EHGR 220137Z AUTO VRB01KT 4600 BR NCD 09/08 Q1013 GRN
EBBL - Kleine-Brogel(Ba, Belgium
Afstand tot: ZZW 71 km
Gewijzigd: 22-09-2020 03:34
Helder  
Helder  
   Wind: varieert 3.7 km/h
Wind: varieert 3.7 km/h
Temperatuur: 9°C
Dauwpunt: 8°C
Vochtigheid: 94%
Barometer: 1013 hPa
Bewolking: Helder
Zicht: 5 km
Bewolking: Helder
EBBL 220134Z AUTO VRB02KT 4700 NCD 09/08 Q1013 GRN

Script ontwikkeld door  Saratoga-weather.org Aangepast voor de template door  Weerstation Leuven

U vindt ons ook hier:

Het Weer Aktueel

UK Metoffice

WeatherCloud

Weather Underground

AWEKAS

HAMweather, WeatherForYou, PWS Weather

Apparatuur in gebruik:

Weerstation
Davis Vantage Vue

Weerprogramma
Meteobridge

Davis Vantage Vue

Meteobridge